Time;durP1;ratioP1;P1;durP2;ratioP2;P2;SDS_P1;SDS_P2;PMS_P1;PMS_P2;Temp;Humidity;BMP_temperature;BMP_pressure;BME280_temperature;BME280_humidity;BME280_pressure;Samples;Min_cycle;Max_cycle;Signal;HPM_P1;HPM_P2
2022/01/30 10:12:23;;;;;;;11.67;10.50;;;10.50;99.90;;;;;;5086538;28;20542;-82
2022/01/30 10:14:52;;;;;;;13.40;10.20;;;10.00;99.90;;;;;;5087112;28;20460;-82
2022/01/30 10:17:28;;;;;;;11.07;10.37;;;10.80;99.90;;;;;;5086989;28;20853;-83
2022/01/30 10:20:10;;;;;;;11.20;10.20;;;12.10;98.10;;;;;;5086892;28;20472;-83
2022/01/30 10:22:48;;;;;;;12.03;11.17;;;12.80;95.20;;;;;;5086933;28;20941;-84
2022/01/30 10:25:20;;;;;;;13.00;11.67;;;12.40;95.60;;;;;;5086953;28;20438;-82
2022/01/30 10:27:48;;;;;;;12.90;11.70;;;12.20;96.10;;;;;;5098184;28;20480;-83
2022/01/30 10:30:21;;;;;;;13.93;11.07;;;11.60;97.00;;;;;;5090899;28;20489;-83
2022/01/30 10:32:55;;;;;;;10.93;9.90;;;11.70;97.60;;;;;;5087872;28;20542;-82
2022/01/30 10:35:22;;;;;;;11.87;10.23;;;12.00;97.10;;;;;;5086800;28;20501;-82
2022/01/30 10:37:48;;;;;;;13.43;12.03;;;12.20;96.00;;;;;;5086685;28;20806;-82
2022/01/30 10:40:18;;;;;;;10.73;9.90;;;11.90;95.30;;;;;;5086893;28;20442;-82
2022/01/30 10:42:48;;;;;;;10.90;9.70;;;11.10;95.90;;;;;;5086607;28;20524;-81
2022/01/30 10:45:24;;;;;;;10.20;9.40;;;10.60;97.00;;;;;;5086713;28;21052;-80
2022/01/30 10:47:51;;;;;;;11.37;9.90;;;10.10;97.30;;;;;;5086214;28;20449;-80
2022/01/30 10:50:20;;;;;;;11.30;9.23;;;9.70;98.40;;;;;;5086397;28;20482;-81
2022/01/30 10:52:56;;;;;;;10.70;9.90;;;9.40;99.10;;;;;;5086704;28;20523;-80
2022/01/30 10:55:33;;;;;;;9.60;8.80;;;9.10;99.30;;;;;;5087063;28;20470;-81
2022/01/30 10:58:02;;;;;;;13.83;9.93;;;8.90;99.90;;;;;;5087033;28;20453;-81
2022/01/30 11:00:40;;;;;;;9.90;9.20;;;8.80;99.90;;;;;;5086505;28;20450;-82
2022/01/30 11:03:08;;;;;;;12.20;11.23;;;9.20;99.90;;;;;;5085778;28;20474;-83
2022/01/30 11:05:52;;;;;;;10.60;9.70;;;9.50;99.10;;;;;;5086071;28;20450;-83
2022/01/30 11:08:23;;;;;;;10.63;8.70;;;9.60;98.90;;;;;;5086461;28;20450;-82
2022/01/30 11:11:06;;;;;;;9.30;8.50;;;9.40;98.50;;;;;;5086027;28;20490;-82
2022/01/30 11:13:45;;;;;;;12.43;9.10;;;9.30;99.00;;;;;;5072680;28;20451;-81
2022/01/30 11:18:59;;;;;;;11.50;10.40;;;9.60;99.00;;;;;;5075679;28;20438;-80
2022/01/30 11:21:27;;;;;;;10.37;9.70;;;10.30;97.40;;;;;;5093728;28;20462;-82
2022/01/30 11:23:58;;;;;;;10.17;9.37;;;11.30;95.50;;;;;;5084367;28;20524;-82
2022/01/30 11:26:24;;;;;;;21.00;11.80;;;11.30;94.40;;;;;;5074538;28;20706;-83
2022/01/30 11:28:53;;;;;;;11.30;10.07;;;10.90;95.10;;;;;;5076382;28;20443;-83
2022/01/30 11:31:20;;;;;;;10.17;9.30;;;10.70;95.40;;;;;;5072795;28;20899;-83
2022/01/30 11:33:48;;;;;;;10.60;9.60;;;10.90;95.90;;;;;;5072312;28;20454;-83
2022/01/30 11:36:15;;;;;;;12.10;10.50;;;11.50;95.20;;;;;;5072333;28;20447;-82
2022/01/30 11:38:42;;;;;;;9.87;9.27;;;11.90;94.20;;;;;;5072279;28;20524;-81
2022/01/30 11:41:10;;;;;;;9.97;9.20;;;11.70;94.20;;;;;;5071953;28;20451;-81
2022/01/30 11:43:37;;;;;;;12.53;11.60;;;12.20;94.60;;;;;;5071910;28;20871;-82
2022/01/30 11:46:14;;;;;;;12.10;10.87;;;13.50;92.40;;;;;;5072150;28;20526;-83
2022/01/30 11:48:41;;;;;;;14.83;11.23;;;14.50;90.50;;;;;;5071675;28;20534;-83
2022/01/30 11:51:09;;;;;;;11.47;10.57;;;15.10;89.10;;;;;;5071673;28;20483;-82
2022/01/30 11:53:37;;;;;;;12.07;11.07;;;16.10;84.30;;;;;;5071705;28;20447;-82
2022/01/30 11:56:05;;;;;;;11.83;10.80;;;17.00;79.00;;;;;;5072372;28;20534;-83
2022/01/30 11:58:40;;;;;;;11.93;10.90;;;16.30;77.60;;;;;;5072411;28;20458;-84
2022/01/30 12:01:15;;;;;;;14.97;12.87;;;16.40;77.30;;;;;;5071678;28;20457;-84
2022/01/30 12:03:54;;;;;;;13.10;11.60;;;15.70;79.40;;;;;;5071578;28;20483;-83
2022/01/30 12:06:33;;;;;;;11.20;10.10;;;13.80;80.70;;;;;;5071294;28;20439;-82
2022/01/30 12:09:01;;;;;;;15.03;13.47;;;13.40;83.70;;;;;;5071627;28;20813;-82
2022/01/30 12:11:53;;;;;;;12.27;10.70;;;14.20;82.40;;;;;;5070793;28;20487;-83
2022/01/30 12:14:49;;;;;;;10.47;9.67;;;14.90;80.20;;;;;;5071272;28;20447;-82
2022/01/30 12:17:58;;;;;;;12.50;11.70;;;14.40;80.80;;;;;;5050995;28;20784;-82
2022/01/30 12:20:26;;;;;;;11.40;10.60;;;14.40;79.80;;;;;;5071311;28;20548;-82
2022/01/30 12:22:53;;;;;;;12.10;10.93;;;14.50;80.20;;;;;;5070832;28;21144;-82
2022/01/30 12:25:23;;;;;;;11.53;10.70;;;15.20;77.50;;;;;;5071074;28;20447;-82
2022/01/30 12:27:49;;;;;;;11.03;10.20;;;15.70;76.50;;;;;;5070973;28;20804;-81
2022/01/30 12:30:31;;;;;;;11.17;10.47;;;14.90;77.00;;;;;;5070991;28;20454;-81
2022/01/30 12:33:00;;;;;;;9.60;8.90;;;14.20;77.80;;;;;;5070714;28;20454;-81
2022/01/30 12:35:27;;;;;;;11.30;10.47;;;13.60;79.80;;;;;;5070482;28;20459;-81
2022/01/30 12:37:53;;;;;;;10.60;9.83;;;13.00;84.00;;;;;;5070521;28;20458;-80
2022/01/30 12:40:22;;;;;;;10.70;9.80;;;12.60;84.80;;;;;;5070587;28;20538;-80
2022/01/30 12:42:49;;;;;;;9.97;9.27;;;11.50;85.50;;;;;;5070619;28;20466;-80
2022/01/30 12:45:16;;;;;;;10.53;9.73;;;10.90;90.10;;;;;;5070770;28;20459;-79
2022/01/30 12:47:47;;;;;;;11.80;10.27;;;10.10;90.30;;;;;;5070501;28;20443;-79
2022/01/30 12:50:17;;;;;;;12.30;11.10;;;10.10;91.60;;;;;;5070539;28;20538;-80
2022/01/30 12:52:48;;;;;;;11.30;10.20;;;11.00;90.50;;;;;;5070599;28;20544;-81
2022/01/30 12:55:16;;;;;;;11.50;10.50;;;11.90;88.20;;;;;;5070349;28;20457;-81
2022/01/30 12:57:44;;;;;;;10.40;9.43;;;12.50;85.30;;;;;;5070268;28;20442;-82
2022/01/30 13:00:13;;;;;;;10.00;9.40;;;12.80;84.10;;;;;;5072947;28;20477;-83
2022/01/30 13:02:52;;;;;;;10.50;9.60;;;13.30;81.90;;;;;;5070176;28;20463;-84
2022/01/30 13:05:20;;;;;;;11.37;10.23;;;13.80;80.40;;;;;;5070127;28;20512;-83
2022/01/30 13:07:53;;;;;;;11.40;10.70;;;13.70;79.60;;;;;;5070416;28;20447;-83
2022/01/30 13:10:21;;;;;;;10.33;9.73;;;13.90;80.20;;;;;;5069901;28;20578;-84
2022/01/30 13:12:47;;;;;;;10.10;9.27;;;13.90;80.30;;;;;;5070734;28;20427;-82
2022/01/30 13:15:16;;;;;;;10.67;9.63;;;13.40;80.80;;;;;;5070019;28;20439;-81
2022/01/30 13:17:43;;;;;;;10.77;9.87;;;12.50;81.20;;;;;;5069969;28;20451;-81
2022/01/30 13:20:12;;;;;;;10.90;9.83;;;11.40;83.30;;;;;;5069911;28;20435;-81
2022/01/30 13:22:43;;;;;;;12.13;9.80;;;10.60;86.80;;;;;;5069698;28;20797;-81
2022/01/30 13:25:12;;;;;;;10.23;9.07;;;10.30;89.60;;;;;;5069821;28;20453;-80
2022/01/30 13:27:39;;;;;;;10.17;9.37;;;10.10;90.10;;;;;;5069537;28;21008;-80
2022/01/30 13:30:07;;;;;;;10.00;9.07;;;10.10;90.50;;;;;;5069492;28;21167;-79
2022/01/30 13:32:38;;;;;;;14.40;8.97;;;10.00;89.70;;;;;;5069430;28;20484;-80
2022/01/30 13:35:12;;;;;;;11.47;10.50;;;9.70;90.10;;;;;;5069598;28;20459;-80
2022/01/30 13:37:41;;;;;;;10.60;9.70;;;9.50;91.60;;;;;;5069384;28;20546;-79
2022/01/30 13:40:18;;;;;;;9.27;8.53;;;9.30;91.50;;;;;;5069421;28;20525;-79
2022/01/30 13:42:48;;;;;;;10.40;9.60;;;9.20;91.90;;;;;;5069560;28;20504;-79
2022/01/30 13:48:12;;;;;;;10.07;9.40;;;8.90;92.40;;;;;;5069780;28;20430;-80
2022/01/30 13:50:40;;;;;;;8.73;8.03;;;8.90;93.10;;;;;;5069750;28;20457;-80
2022/01/30 13:53:10;;;;;;;16.00;9.80;;;9.00;93.70;;;;;;5069413;28;20451;-81
2022/01/30 13:55:50;;;;;;;9.80;8.97;;;9.00;94.10;;;;;;5069588;28;20828;-82
2022/01/30 13:58:18;;;;;;;11.30;10.13;;;9.00;94.80;;;;;;5069787;28;20538;-82
2022/01/30 14:00:46;;;;;;;11.10;9.87;;;9.10;94.60;;;;;;5069864;28;20471;-83
2022/01/30 14:03:22;;;;;;;14.47;10.70;;;9.30;94.70;;;;;;5069462;28;20894;-83
2022/01/30 14:05:49;;;;;;;11.40;10.40;;;9.50;94.40;;;;;;5069609;28;20496;-83
2022/01/30 14:08:19;;;;;;;10.57;10.00;;;9.90;93.70;;;;;;5069931;28;20451;-83
2022/01/30 14:10:48;;;;;;;10.80;10.03;;;9.80;92.10;;;;;;5069910;28;20569;-81
2022/01/30 14:13:19;;;;;;;9.97;9.07;;;9.70;91.00;;;;;;5069624;28;20447;-81
2022/01/30 14:15:46;;;;;;;10.67;9.60;;;9.60;91.30;;;;;;5069612;28;20973;-81
2022/01/30 14:18:16;;;;;;;10.43;9.40;;;9.50;91.30;;;;;;5069349;28;20811;-82
2022/01/30 14:20:45;;;;;;;9.13;8.30;;;9.50;91.30;;;;;;5069327;28;20455;-82
2022/01/30 14:23:14;;;;;;;10.07;9.10;;;9.40;91.50;;;;;;5069326;28;20538;-80
2022/01/30 14:25:45;;;;;;;9.27;8.50;;;9.50;91.80;;;;;;5069272;28;20580;-83
2022/01/30 14:28:27;;;;;;;11.03;9.93;;;9.50;92.00;;;;;;5069629;28;20447;-84
2022/01/30 14:30:55;;;;;;;9.70;9.00;;;9.60;91.50;;;;;;5069018;28;20455;-83
2022/01/30 14:33:22;;;;;;;9.43;8.80;;;9.70;91.50;;;;;;5069031;28;20447;-83
2022/01/30 14:35:49;;;;;;;10.47;9.63;;;9.70;90.90;;;;;;5069233;28;21004;-83
2022/01/30 14:38:16;;;;;;;10.23;9.63;;;9.70;91.50;;;;;;5069470;28;20803;-81
2022/01/30 14:40:44;;;;;;;10.23;9.23;;;9.80;91.40;;;;;;5069264;28;20447;-83
2022/01/30 14:43:12;;;;;;;10.30;9.53;;;9.80;91.20;;;;;;5069311;28;20497;-80
2022/01/30 14:45:41;;;;;;;10.77;9.90;;;9.70;90.80;;;;;;5068941;28;20943;-82
2022/01/30 14:48:08;;;;;;;10.07;9.20;;;9.70;91.00;;;;;;5071652;28;21000;-80
2022/01/30 14:50:35;;;;;;;11.00;10.00;;;9.60;91.20;;;;;;5073026;28;20458;-81
2022/01/30 14:53:02;;;;;;;11.43;10.50;;;9.70;91.60;;;;;;5072957;28;20862;-81
2022/01/30 14:55:29;;;;;;;9.90;8.87;;;9.70;91.80;;;;;;5072805;28;20443;-80
2022/01/30 14:57:58;;;;;;;10.03;8.90;;;9.60;91.00;;;;;;5072752;28;20497;-80
2022/01/30 15:00:26;;;;;;;11.40;10.00;;;9.30;90.60;;;;;;5072653;28;20543;-81
2022/01/30 15:02:53;;;;;;;10.23;8.73;;;9.30;90.90;;;;;;5072380;28;21051;-81
2022/01/30 15:05:20;;;;;;;10.20;9.40;;;9.40;91.20;;;;;;5072383;28;20541;-80
2022/01/30 15:07:47;;;;;;;9.33;8.63;;;9.20;91.10;;;;;;5072845;28;20462;-80
2022/01/30 15:10:14;;;;;;;10.63;9.83;;;9.00;91.90;;;;;;5072351;28;20503;-80
2022/01/30 15:12:42;;;;;;;9.23;8.43;;;8.80;92.10;;;;;;5072429;28;20539;-80
2022/01/30 15:15:12;;;;;;;10.03;9.33;;;8.80;92.60;;;;;;5072219;28;20950;-80
2022/01/30 15:17:40;;;;;;;12.83;12.07;;;8.80;92.90;;;;;;5072426;28;20439;-81
2022/01/30 15:20:10;;;;;;;9.80;9.20;;;8.70;93.00;;;;;;5072356;28;20451;-82
2022/01/30 15:22:37;;;;;;;11.17;9.93;;;8.60;93.60;;;;;;5072447;28;20451;-82
2022/01/30 15:25:07;;;;;;;11.27;10.47;;;8.60;94.00;;;;;;5072509;28;20507;-81
2022/01/30 15:27:34;;;;;;;10.47;9.57;;;8.60;94.10;;;;;;5072162;28;20505;-80
2022/01/30 15:30:01;;;;;;;10.00;9.30;;;8.50;94.30;;;;;;5072485;28;20459;-81
2022/01/30 15:32:29;;;;;;;9.70;8.80;;;8.30;94.70;;;;;;5071923;28;20490;-80
2022/01/30 15:34:57;;;;;;;11.80;9.40;;;8.20;95.50;;;;;;5072065;28;20825;-80
2022/01/30 15:37:25;;;;;;;10.57;9.57;;;8.00;96.10;;;;;;5072009;28;20532;-80
2022/01/30 15:39:52;;;;;;;9.27;8.57;;;7.80;96.10;;;;;;5071869;28;20544;-79
2022/01/30 15:42:19;;;;;;;12.13;11.10;;;7.70;96.20;;;;;;5072156;28;20544;-79
2022/01/30 15:50:27;;;;;;;8.13;7.60;;;7.40;97.20;;;;;;5071679;28;20943;-79
2022/01/30 15:52:54;;;;;;;10.87;10.00;;;7.20;97.30;;;;;;5071845;28;20486;-79
2022/01/30 15:55:22;;;;;;;9.40;8.50;;;7.10;97.80;;;;;;5071742;28;20522;-79
2022/01/30 15:57:50;;;;;;;9.57;8.93;;;7.10;98.30;;;;;;5071812;28;20824;-80
2022/01/30 16:00:18;;;;;;;10.57;9.67;;;7.00;98.20;;;;;;5071846;28;20551;-80
2022/01/30 16:02:46;;;;;;;9.53;8.60;;;6.90;98.60;;;;;;5071760;28;20474;-80
2022/01/30 16:05:16;;;;;;;10.37;9.57;;;6.80;99.00;;;;;;5071636;28;20457;-79
2022/01/30 16:07:43;;;;;;;9.13;8.43;;;6.80;99.60;;;;;;5071703;28;20958;-79
2022/01/30 16:10:13;;;;;;;10.50;9.73;;;6.80;99.70;;;;;;5071360;28;20529;-79
2022/01/30 16:15:35;;;;;;;14.70;10.47;;;6.70;99.90;;;;;;5071388;28;20481;-79
2022/01/30 16:15:38;;;;;;;9.00;8.40;;;6.60;99.90;;;;;;5071161;28;20436;-79
2022/01/30 16:18:12;;;;;;;10.40;9.53;;;6.60;99.90;;;;;;5071134;28;20453;-79
2022/01/30 16:20:40;;;;;;;9.30;8.27;;;6.50;99.90;;;;;;5071447;28;20765;-79
2022/01/30 16:23:08;;;;;;;12.07;9.13;;;6.50;99.90;;;;;;5072660;28;20451;-79
2022/01/30 16:25:36;;;;;;;12.17;9.00;;;6.50;99.90;;;;;;5071633;28;20454;-80
2022/01/30 16:28:04;;;;;;;11.37;9.57;;;6.40;99.90;;;;;;5071567;28;20484;-80
2022/01/30 16:30:31;;;;;;;9.83;9.07;;;6.40;99.90;;;;;;5071069;28;20965;-80
2022/01/30 16:32:58;;;;;;;9.00;8.50;;;6.30;99.90;;;;;;5070776;28;20481;-79
2022/01/30 16:35:26;;;;;;;10.00;9.10;;;6.30;99.90;;;;;;5070957;28;20842;-79
2022/01/30 16:37:53;;;;;;;9.80;9.00;;;6.20;99.90;;;;;;5070927;28;20447;-78
2022/01/30 16:40:20;;;;;;;9.93;9.03;;;6.10;99.90;;;;;;5070597;28;20939;-78
2022/01/30 16:42:46;;;;;;;10.70;8.80;;;6.00;99.90;;;;;;5070936;28;20788;-77
2022/01/30 16:45:18;;;;;;;9.37;8.57;;;5.90;99.90;;;;;;5070523;28;20458;-77
2022/01/30 16:47:56;;;;;;;12.60;8.90;;;5.90;99.90;;;;;;5070718;28;20449;-77
2022/01/30 16:50:26;;;;;;;9.53;8.77;;;5.90;99.90;;;;;;5070465;28;20452;-77
2022/01/30 16:52:52;;;;;;;10.67;9.40;;;5.90;99.90;;;;;;5070406;28;20482;-78
2022/01/30 16:55:19;;;;;;;9.53;8.83;;;5.90;99.90;;;;;;5070550;28;20447;-78
2022/01/30 16:57:46;;;;;;;14.77;8.57;;;5.80;99.90;;;;;;5070718;28;20975;-78
2022/01/30 17:00:17;;;;;;;8.90;8.37;;;5.80;99.90;;;;;;5070347;28;20481;-78
2022/01/30 17:02:43;;;;;;;9.10;8.33;;;5.70;99.90;;;;;;5070157;28;20485;-78
2022/01/30 17:05:10;;;;;;;10.83;9.63;;;5.60;99.90;;;;;;5070099;28;20516;-78
2022/01/30 17:07:38;;;;;;;10.97;10.37;;;5.60;99.90;;;;;;5070127;28;20451;-78
2022/01/30 17:10:08;;;;;;;19.00;9.40;;;5.60;99.90;;;;;;5069374;28;20454;-78
2022/01/30 17:12:45;;;;;;;10.10;9.07;;;5.60;99.90;;;;;;5069978;28;21025;-78
2022/01/30 17:15:12;;;;;;;12.77;9.00;;;5.50;99.90;;;;;;5070296;28;20458;-78
2022/01/30 17:17:39;;;;;;;12.83;7.90;;;5.50;99.90;;;;;;5070047;28;20454;-79
2022/01/30 17:20:07;;;;;;;8.60;8.00;;;5.40;99.90;;;;;;5069974;28;20506;-82
2022/01/30 17:22:34;;;;;;;11.07;8.80;;;5.30;99.90;;;;;;5070143;28;20446;-79
2022/01/30 17:25:02;;;;;;;10.97;9.93;;;5.30;99.90;;;;;;5070255;28;20447;-80
2022/01/30 17:27:29;;;;;;;9.87;9.17;;;5.10;99.90;;;;;;5070167;28;20456;-79
2022/01/30 17:29:56;;;;;;;12.53;11.40;;;5.00;99.90;;;;;;5070277;28;20504;-80
2022/01/30 17:32:22;;;;;;;12.73;11.37;;;4.90;99.90;;;;;;5069777;28;21040;-80
2022/01/30 17:34:49;;;;;;;16.43;9.43;;;4.80;99.90;;;;;;5070066;28;20446;-79
2022/01/30 17:37:16;;;;;;;15.40;9.47;;;4.80;99.90;;;;;;5070178;28;20455;-79
2022/01/30 17:39:43;;;;;;;14.77;10.53;;;4.70;99.90;;;;;;5069887;28;20458;-79
2022/01/30 17:42:11;;;;;;;9.90;8.93;;;4.70;99.90;;;;;;5069821;28;20448;-79
2022/01/30 17:44:38;;;;;;;9.70;8.87;;;4.60;99.90;;;;;;5069751;28;20714;-79
2022/01/30 17:47:05;;;;;;;12.13;10.43;;;4.60;99.90;;;;;;5069545;28;20453;-79
2022/01/30 17:49:32;;;;;;;12.03;10.20;;;4.50;99.90;;;;;;5069941;28;20462;-79
2022/01/30 17:51:59;;;;;;;13.30;9.30;;;4.50;99.90;;;;;;5070007;28;20931;-79
2022/01/30 17:54:28;;;;;;;9.37;8.47;;;4.50;99.90;;;;;;5069652;28;20465;-79
2022/01/30 17:56:55;;;;;;;11.10;10.00;;;4.50;99.90;;;;;;5069613;28;20462;-79
